createdAt,value
2023-02-24T00:00:34.043Z,10.40
2023-02-24T00:03:06.161Z,9.73
2023-02-24T00:05:33.613Z,9.57
2023-02-24T00:08:00.235Z,9.53
2023-02-24T00:10:26.683Z,9.57
2023-02-24T00:12:54.177Z,9.45
2023-02-24T00:15:20.677Z,10.70
2023-02-24T00:17:47.085Z,9.40
2023-02-24T00:20:13.782Z,9.17
2023-02-24T00:22:40.694Z,9.73
2023-02-24T00:25:07.518Z,9.37
2023-02-24T00:27:34.299Z,9.35
2023-02-24T00:30:01.741Z,9.57
2023-02-24T00:32:28.808Z,9.35
2023-02-24T00:34:55.807Z,9.50
2023-02-24T00:37:24.572Z,9.97
2023-02-24T00:39:51.054Z,8.87
2023-02-24T00:42:18.075Z,8.88
2023-02-24T00:44:45.400Z,10.00
2023-02-24T00:47:12.292Z,9.07
2023-02-24T00:49:42.337Z,9.50
2023-02-24T00:52:16.189Z,9.37
2023-02-24T00:54:43.655Z,10.03
2023-02-24T00:57:10.799Z,9.93
2023-02-24T00:59:37.735Z,11.03
2023-02-24T01:02:06.879Z,9.47
2023-02-24T01:04:33.567Z,10.45
2023-02-24T01:07:00.324Z,10.07
2023-02-24T01:09:28.381Z,11.27
2023-02-24T01:12:15.322Z,10.13
2023-02-24T01:14:43.492Z,10.60
2023-02-24T01:17:09.949Z,10.53
2023-02-24T01:19:36.893Z,11.47
2023-02-24T01:22:07.449Z,12.27
2023-02-24T01:24:35.570Z,11.10
2023-02-24T01:27:02.508Z,13.13
2023-02-24T01:29:29.139Z,13.37
2023-02-24T01:31:58.751Z,11.90
2023-02-24T01:34:26.539Z,11.68
2023-02-24T01:36:53.306Z,11.63
2023-02-24T01:39:19.869Z,10.32
2023-02-24T01:41:47.913Z,10.68
2023-02-24T01:44:14.674Z,10.27
2023-02-24T01:46:42.238Z,11.53
2023-02-24T01:49:09.349Z,13.73
2023-02-24T01:51:37.913Z,14.23
2023-02-24T01:54:06.404Z,12.83
2023-02-24T01:56:34.548Z,11.70
2023-02-24T01:59:01.909Z,12.07
2023-02-24T02:01:28.917Z,10.57
2023-02-24T02:04:00.509Z,9.30
2023-02-24T02:06:27.210Z,9.27
2023-02-24T02:08:53.872Z,9.20
2023-02-24T02:11:22.520Z,9.77
2023-02-24T02:13:50.734Z,10.93
2023-02-24T02:16:41.233Z,11.90
2023-02-24T02:19:26.492Z,10.73
2023-02-24T02:22:19.353Z,11.53
2023-02-24T02:24:46.449Z,11.70
2023-02-24T02:27:29.317Z,11.13
2023-02-24T02:29:56.326Z,9.07
2023-02-24T02:32:32.000Z,9.27
2023-02-24T02:35:02.911Z,11.93
2023-02-24T02:37:52.333Z,10.93
2023-02-24T02:40:26.873Z,12.17
2023-02-24T02:43:02.493Z,12.10
2023-02-24T02:45:32.949Z,12.13
2023-02-24T02:48:01.643Z,12.32
2023-02-24T02:50:33.007Z,11.33
2023-02-24T02:53:03.970Z,12.13
2023-02-24T02:55:40.561Z,11.83
2023-02-24T02:58:10.245Z,11.03
2023-02-24T03:00:42.064Z,11.13
2023-02-24T03:03:16.258Z,10.73
2023-02-24T03:05:47.327Z,9.63
2023-02-24T03:08:21.185Z,9.87
2023-02-24T03:10:51.649Z,9.33
2023-02-24T03:13:23.860Z,9.80
2023-02-24T03:15:51.661Z,9.07
2023-02-24T03:18:28.934Z,9.37
2023-02-24T03:21:01.469Z,8.43
2023-02-24T03:23:31.832Z,9.73
2023-02-24T03:26:07.934Z,8.73
2023-02-24T03:28:37.613Z,10.10
2023-02-24T03:31:27.836Z,9.67
2023-02-24T03:34:00.541Z,9.73
2023-02-24T03:36:27.978Z,9.87
2023-02-24T03:38:54.615Z,10.00
2023-02-24T03:41:21.445Z,11.10
2023-02-24T03:43:50.121Z,10.73
2023-02-24T03:46:19.528Z,9.33
2023-02-24T03:48:52.797Z,10.50
2023-02-24T03:51:21.485Z,9.83
2023-02-24T03:53:53.300Z,9.00
2023-02-24T03:56:26.575Z,8.67
2023-02-24T03:58:53.493Z,9.07
2023-02-24T04:01:21.833Z,8.30
2023-02-24T04:04:00.924Z,8.23
2023-02-24T04:06:59.619Z,8.10
2023-02-24T04:09:39.075Z,8.27
2023-02-24T04:12:09.346Z,9.67
2023-02-24T04:14:43.544Z,9.90
2023-02-24T04:17:19.611Z,9.17
2023-02-24T04:19:49.032Z,8.80
2023-02-24T04:22:19.237Z,9.50
2023-02-24T04:24:48.904Z,10.13
2023-02-24T04:27:15.754Z,8.73
2023-02-24T04:29:47.228Z,9.93
2023-02-24T04:32:17.585Z,9.23
2023-02-24T04:34:45.451Z,8.80
2023-02-24T04:37:11.903Z,9.10
2023-02-24T04:39:39.221Z,8.30
2023-02-24T04:42:11.108Z,8.47
2023-02-24T04:44:37.515Z,9.10
2023-02-24T04:47:04.019Z,7.83
2023-02-24T04:49:30.442Z,7.77
2023-02-24T04:51:57.144Z,7.43
2023-02-24T04:54:24.267Z,6.83
2023-02-24T04:56:51.656Z,7.20
2023-02-24T04:59:18.824Z,7.10
2023-02-24T05:01:45.460Z,7.13
2023-02-24T05:04:12.869Z,6.93
2023-02-24T05:06:44.124Z,7.03
2023-02-24T05:09:14.229Z,7.17
2023-02-24T05:11:45.055Z,6.77
2023-02-24T05:14:15.023Z,6.53
2023-02-24T05:16:45.683Z,6.73
2023-02-24T05:19:31.985Z,5.87
2023-02-24T05:21:58.499Z,7.17
2023-02-24T05:24:27.120Z,5.80
2023-02-24T05:26:58.094Z,6.57
2023-02-24T05:29:28.798Z,6.07
2023-02-24T05:31:59.477Z,6.00
2023-02-24T05:34:27.135Z,6.07
2023-02-24T05:36:53.628Z,6.47
2023-02-24T05:39:21.248Z,5.67
2023-02-24T05:41:48.613Z,6.83
2023-02-24T05:44:25.953Z,5.90
2023-02-24T05:46:58.029Z,5.73
2023-02-24T05:49:27.071Z,5.27
2023-02-24T05:51:55.184Z,5.37
2023-02-24T05:54:23.518Z,5.07
2023-02-24T05:56:49.982Z,5.10
2023-02-24T05:59:21.504Z,5.80
2023-02-24T06:01:48.862Z,9.13
2023-02-24T06:04:39.087Z,14.17
2023-02-24T06:07:18.976Z,23.63
2023-02-24T06:09:46.359Z,25.37
2023-02-24T06:12:14.577Z,26.10
2023-02-24T06:14:42.067Z,26.73
2023-02-24T06:17:08.905Z,23.20
2023-02-24T06:19:35.513Z,22.60
2023-02-24T06:22:02.231Z,19.17
2023-02-24T06:24:29.402Z,19.40
2023-02-24T06:27:02.519Z,21.27
2023-02-24T06:29:30.209Z,24.60
2023-02-24T06:32:00.171Z,25.43
2023-02-24T06:34:27.724Z,30.40
2023-02-24T06:36:54.156Z,25.07
2023-02-24T06:39:20.643Z,21.37
2023-02-24T06:41:49.247Z,18.27
2023-02-24T06:44:15.663Z,19.93
2023-02-24T06:46:42.111Z,20.83
2023-02-24T06:49:09.881Z,21.07
2023-02-24T06:51:36.905Z,17.87
2023-02-24T06:54:03.364Z,15.03
2023-02-24T06:56:32.265Z,12.30
2023-02-24T06:58:59.170Z,10.27
2023-02-24T07:01:26.575Z,9.37
2023-02-24T07:04:03.601Z,9.10
2023-02-24T07:06:35.556Z,8.73
2023-02-24T07:09:05.264Z,8.17
2023-02-24T07:11:32.260Z,7.77
2023-02-24T07:13:59.418Z,8.17
2023-02-24T07:16:28.610Z,6.43
2023-02-24T07:18:56.640Z,6.63
2023-02-24T07:21:24.270Z,6.00
2023-02-24T07:23:58.809Z,6.53
2023-02-24T07:26:27.652Z,6.17
2023-02-24T07:28:58.000Z,5.70
2023-02-24T07:31:25.957Z,6.10
2023-02-24T07:33:53.564Z,6.90
2023-02-24T07:36:23.186Z,6.50
2023-02-24T07:38:52.390Z,6.23
2023-02-24T07:41:22.611Z,6.17
2023-02-24T07:43:52.792Z,5.73
2023-02-24T07:46:24.488Z,6.13
2023-02-24T07:48:55.571Z,6.20
2023-02-24T07:51:23.698Z,6.57
2023-02-24T07:53:53.003Z,5.87
2023-02-24T07:56:21.054Z,6.40
2023-02-24T07:58:50.923Z,6.57
2023-02-24T08:01:23.240Z,6.93
2023-02-24T08:03:52.009Z,6.40
2023-02-24T08:06:27.255Z,6.87
2023-02-24T08:08:57.889Z,6.40
2023-02-24T08:11:25.561Z,6.20
2023-02-24T08:13:52.204Z,7.50
2023-02-24T08:16:18.757Z,6.13
2023-02-24T08:18:49.027Z,5.77
2023-02-24T08:21:21.624Z,6.40
2023-02-24T08:23:48.326Z,6.77
2023-02-24T08:26:15.033Z,7.50
2023-02-24T08:28:41.703Z,6.13
2023-02-24T08:31:08.293Z,6.30
2023-02-24T08:33:37.266Z,6.33
2023-02-24T08:36:03.782Z,6.73
2023-02-24T08:38:41.940Z,6.67
2023-02-24T08:41:13.116Z,6.80
2023-02-24T08:43:40.515Z,6.03
2023-02-24T08:46:13.172Z,5.67
2023-02-24T08:48:42.410Z,6.50
2023-02-24T08:51:29.321Z,6.60
2023-02-24T08:53:57.566Z,6.90
2023-02-24T08:56:25.540Z,6.53
2023-02-24T08:59:05.162Z,6.20
2023-02-24T09:01:36.107Z,6.67
2023-02-24T09:04:04.659Z,6.20
2023-02-24T09:06:39.567Z,6.53
2023-02-24T09:09:18.977Z,6.50
2023-02-24T09:11:46.809Z,5.43
2023-02-24T09:14:26.070Z,5.97
2023-02-24T09:17:03.925Z,5.37
2023-02-24T09:19:49.704Z,4.97
2023-02-24T09:22:32.198Z,5.13
2023-02-24T09:25:17.993Z,4.73
2023-02-24T09:27:52.240Z,4.90
2023-02-24T09:30:38.268Z,5.00
2023-02-24T09:33:17.840Z,4.77
2023-02-24T09:35:46.765Z,4.97
2023-02-24T09:38:17.645Z,4.27
2023-02-24T09:40:52.039Z,3.63
2023-02-24T09:43:30.308Z,4.47
2023-02-24T09:46:01.977Z,4.20
2023-02-24T09:48:45.665Z,4.60
2023-02-24T09:51:21.664Z,4.00
2023-02-24T09:53:52.639Z,3.65
2023-02-24T09:56:25.143Z,4.20
2023-02-24T09:59:00.910Z,3.80
2023-02-24T10:01:42.903Z,3.95
2023-02-24T10:04:23.025Z,4.40
2023-02-24T10:06:58.951Z,4.90
2023-02-24T10:09:44.310Z,3.42
2023-02-24T10:12:19.841Z,3.83
2023-02-24T10:14:52.999Z,3.60
2023-02-24T10:17:22.907Z,4.03
2023-02-24T10:20:13.792Z,4.10
2023-02-24T10:22:40.530Z,4.20
2023-02-24T10:25:25.189Z,4.07
2023-02-24T10:27:58.288Z,4.50
2023-02-24T10:30:40.661Z,5.00
2023-02-24T10:33:18.853Z,5.00
2023-02-24T10:35:45.340Z,5.37
2023-02-24T10:38:12.136Z,5.78
2023-02-24T10:40:56.607Z,5.57
2023-02-24T10:43:30.367Z,6.32
2023-02-24T10:46:06.189Z,6.07
2023-02-24T10:48:42.047Z,5.88
2023-02-24T10:51:19.828Z,5.90
2023-02-24T10:53:53.176Z,6.97
2023-02-24T10:56:38.868Z,6.17
2023-02-24T10:59:25.116Z,5.88
2023-02-24T11:01:59.324Z,6.57
2023-02-24T11:04:43.582Z,6.00
2023-02-24T11:07:24.665Z,6.43
2023-02-24T11:10:11.112Z,5.68
2023-02-24T11:13:09.317Z,5.50
2023-02-24T11:15:56.076Z,5.93
2023-02-24T11:18:24.377Z,6.63
2023-02-24T11:21:04.518Z,6.57
2023-02-24T11:23:35.775Z,6.27
2023-02-24T11:26:06.760Z,6.43
2023-02-24T11:28:33.195Z,5.83
2023-02-24T11:31:06.374Z,5.40
2023-02-24T11:33:32.861Z,6.13
2023-02-24T11:36:22.768Z,6.20
2023-02-24T11:39:16.526Z,6.03
2023-02-24T11:41:47.462Z,6.80
2023-02-24T11:44:23.062Z,5.93
2023-02-24T11:46:52.541Z,6.00
2023-02-24T11:49:25.635Z,6.10
2023-02-24T11:51:52.940Z,6.83
2023-02-24T11:54:19.632Z,7.63
2023-02-24T11:56:50.818Z,8.43
2023-02-24T11:59:24.287Z,7.90
2023-02-24T12:02:09.903Z,8.30
2023-02-24T12:04:39.339Z,9.73
2023-02-24T12:07:28.350Z,8.37
2023-02-24T12:10:16.185Z,8.60
2023-02-24T12:13:02.208Z,7.50
2023-02-24T12:15:30.916Z,8.67
2023-02-24T12:18:04.246Z,9.87
2023-02-24T12:20:31.186Z,8.20
2023-02-24T12:23:20.970Z,8.73
2023-02-24T12:25:58.856Z,8.80
2023-02-24T12:28:44.162Z,10.07
2023-02-24T12:31:10.593Z,9.07
2023-02-24T12:33:45.899Z,9.47
2023-02-24T12:36:20.090Z,11.77
2023-02-24T12:39:07.276Z,10.47
2023-02-24T12:41:35.298Z,13.10
2023-02-24T12:44:21.946Z,13.83
2023-02-24T12:46:53.601Z,12.07
2023-02-24T12:49:38.936Z,13.97
2023-02-24T12:52:27.067Z,12.90
2023-02-24T12:54:59.862Z,13.70
2023-02-24T12:57:48.812Z,15.23
2023-02-24T13:00:15.493Z,14.33
2023-02-24T13:03:00.661Z,11.97
2023-02-24T13:05:46.112Z,9.73
2023-02-24T13:08:37.487Z,10.83
2023-02-24T13:11:05.313Z,15.03
2023-02-24T13:13:40.121Z,15.13
2023-02-24T13:16:06.577Z,12.87
2023-02-24T13:18:34.737Z,10.03
2023-02-24T13:21:03.063Z,10.20
2023-02-24T13:23:32.098Z,11.20
2023-02-24T13:25:58.833Z,12.40
2023-02-24T13:28:33.611Z,12.60
2023-02-24T13:31:05.419Z,12.40
2023-02-24T13:33:34.277Z,11.00
2023-02-24T13:36:09.832Z,10.80
2023-02-24T13:38:38.787Z,13.63
2023-02-24T13:41:20.069Z,13.57
2023-02-24T13:43:58.423Z,13.03
2023-02-24T13:46:26.165Z,12.50
2023-02-24T13:49:11.467Z,9.63
2023-02-24T13:51:53.928Z,11.93
2023-02-24T13:54:20.327Z,10.07
2023-02-24T13:56:46.795Z,11.30
2023-02-24T13:59:32.154Z,16.13
2023-02-24T14:02:00.566Z,13.77
2023-02-24T14:04:31.367Z,11.57
2023-02-24T14:07:00.313Z,11.30
2023-02-24T14:09:29.943Z,12.63
2023-02-24T14:11:59.605Z,12.90
2023-02-24T14:14:28.190Z,12.67
2023-02-24T14:16:54.667Z,11.93
2023-02-24T14:19:21.102Z,13.52
2023-02-24T14:21:49.403Z,11.50
2023-02-24T14:24:16.011Z,12.17
2023-02-24T14:26:48.694Z,10.93
2023-02-24T14:29:43.605Z,12.43
2023-02-24T14:32:21.428Z,12.20
2023-02-24T14:34:48.172Z,15.47
2023-02-24T14:37:17.571Z,13.67
2023-02-24T14:39:54.244Z,15.10
2023-02-24T14:42:20.976Z,13.13
2023-02-24T14:44:49.311Z,12.50
2023-02-24T14:47:16.986Z,16.00
2023-02-24T14:49:52.379Z,12.40
2023-02-24T14:52:24.654Z,12.23
2023-02-24T14:55:00.070Z,11.57
2023-02-24T14:57:28.327Z,9.60
2023-02-24T15:00:00.504Z,11.30
2023-02-24T15:02:31.276Z,11.63
2023-02-24T15:04:58.119Z,12.80
2023-02-24T15:07:32.211Z,14.13
2023-02-24T15:09:59.494Z,12.50
2023-02-24T15:12:37.213Z,13.93
2023-02-24T15:15:03.649Z,11.83
2023-02-24T15:17:30.309Z,12.90
2023-02-24T15:19:56.972Z,13.33
2023-02-24T15:22:27.906Z,16.47
2023-02-24T15:24:55.976Z,16.33
2023-02-24T15:27:25.197Z,13.53
2023-02-24T15:30:08.516Z,13.40
2023-02-24T15:32:36.657Z,12.60
2023-02-24T15:35:04.376Z,15.67
2023-02-24T15:37:41.868Z,16.60
2023-02-24T15:40:18.878Z,15.43
2023-02-24T15:42:50.038Z,16.63
2023-02-24T15:45:22.720Z,17.35
2023-02-24T15:47:53.714Z,16.48
2023-02-24T15:50:20.233Z,15.50
2023-02-24T15:52:46.681Z,13.30
2023-02-24T15:55:17.938Z,15.97
2023-02-24T15:57:44.542Z,14.73
2023-02-24T16:00:14.959Z,14.97
2023-02-24T16:02:41.467Z,13.83
2023-02-24T16:05:09.590Z,13.90
2023-02-24T16:07:37.725Z,14.50
2023-02-24T16:10:04.661Z,14.07
2023-02-24T16:12:33.165Z,15.60
2023-02-24T16:15:03.094Z,15.80
2023-02-24T16:17:32.221Z,14.63
2023-02-24T16:19:58.971Z,15.38
2023-02-24T16:22:25.544Z,15.53
2023-02-24T16:24:51.971Z,17.47
2023-02-24T16:27:19.289Z,14.40
2023-02-24T16:29:46.041Z,16.13
2023-02-24T16:32:13.444Z,17.90
2023-02-24T16:34:40.086Z,18.43
2023-02-24T16:37:18.342Z,17.40
2023-02-24T16:39:44.918Z,21.50
2023-02-24T16:42:14.153Z,19.33
2023-02-24T16:44:40.610Z,18.97
2023-02-24T16:47:07.579Z,21.17
2023-02-24T16:49:34.339Z,24.07
2023-02-24T16:52:00.801Z,26.67
2023-02-24T16:54:29.231Z,25.53
2023-02-24T16:56:56.402Z,27.33
2023-02-24T16:59:23.072Z,29.40
2023-02-24T17:01:49.520Z,27.93
2023-02-24T17:04:16.055Z,31.80
2023-02-24T17:06:42.677Z,32.80
2023-02-24T17:09:09.364Z,30.37
2023-02-24T17:11:35.846Z,26.70
2023-02-24T17:14:02.346Z,24.27
2023-02-24T17:16:28.858Z,32.07
2023-02-24T17:18:55.287Z,33.87
2023-02-24T17:21:21.689Z,31.33
2023-02-24T17:23:48.207Z,31.90
2023-02-24T17:26:15.405Z,29.00
2023-02-24T17:28:41.895Z,25.33
2023-02-24T17:31:08.414Z,26.57
2023-02-24T17:33:35.030Z,20.73
2023-02-24T17:36:01.507Z,25.83
2023-02-24T17:38:28.699Z,22.60
2023-02-24T17:40:57.434Z,27.50
2023-02-24T17:43:23.908Z,30.20
2023-02-24T17:45:51.791Z,27.47
2023-02-24T17:48:18.484Z,26.70
2023-02-24T17:50:45.487Z,25.23
2023-02-24T17:53:12.299Z,26.37
2023-02-24T17:55:39.517Z,26.63
2023-02-24T17:58:07.301Z,25.08
2023-02-24T18:00:33.945Z,26.93
2023-02-24T18:03:03.226Z,27.13
2023-02-24T18:05:29.927Z,25.47
2023-02-24T18:07:59.458Z,26.03
2023-02-24T18:10:27.153Z,27.33
2023-02-24T18:12:53.578Z,24.97
2023-02-24T18:15:20.052Z,27.30
2023-02-24T18:17:46.557Z,23.33
2023-02-24T18:20:14.053Z,22.10
2023-02-24T18:22:40.540Z,22.33
2023-02-24T18:25:07.473Z,23.27
2023-02-24T18:27:34.045Z,13.70
2023-02-24T18:30:00.488Z,12.27
2023-02-24T18:32:30.066Z,11.00
2023-02-24T18:34:58.999Z,8.57
2023-02-24T18:37:28.148Z,8.00
2023-02-24T18:39:54.917Z,7.63
2023-02-24T18:42:22.321Z,5.70
2023-02-24T18:44:49.936Z,6.83
2023-02-24T18:47:16.436Z,6.93
2023-02-24T18:49:43.072Z,5.50
2023-02-24T18:52:11.956Z,4.80
2023-02-24T18:54:38.582Z,4.23
2023-02-24T18:57:05.167Z,4.07
2023-02-24T18:59:32.468Z,3.90
2023-02-24T19:01:59.259Z,3.67
2023-02-24T19:04:29.554Z,3.00
2023-02-24T19:06:59.321Z,3.57
2023-02-24T19:09:25.790Z,2.80
2023-02-24T19:11:54.053Z,2.43
2023-02-24T19:14:20.801Z,3.20
2023-02-24T19:16:47.450Z,2.20
2023-02-24T19:19:15.584Z,2.60
2023-02-24T19:21:42.313Z,2.50
2023-02-24T19:24:11.046Z,2.93
2023-02-24T19:26:38.963Z,2.57
2023-02-24T19:29:05.674Z,2.67
2023-02-24T19:31:32.829Z,3.13
2023-02-24T19:34:00.936Z,3.27
2023-02-24T19:36:29.751Z,3.20
2023-02-24T19:38:56.290Z,3.90
2023-02-24T19:41:23.127Z,3.70
2023-02-24T19:43:51.654Z,3.67
2023-02-24T19:46:18.440Z,3.53
2023-02-24T19:48:46.595Z,3.70
2023-02-24T19:51:20.348Z,4.20
2023-02-24T19:53:47.262Z,3.77
2023-02-24T19:56:14.054Z,5.07
2023-02-24T19:58:40.637Z,4.77
2023-02-24T20:01:09.248Z,4.77
2023-02-24T20:03:39.661Z,3.90
2023-02-24T20:06:06.388Z,3.60
2023-02-24T20:08:34.362Z,3.73
2023-02-24T20:11:01.440Z,4.50
2023-02-24T20:13:28.212Z,3.43
2023-02-24T20:16:03.980Z,4.10
2023-02-24T20:18:30.511Z,4.03
2023-02-24T20:20:57.652Z,3.53
2023-02-24T20:23:26.050Z,3.90
2023-02-24T20:25:53.529Z,3.80
2023-02-24T20:28:21.202Z,5.53
2023-02-24T20:30:48.284Z,5.37
2023-02-24T20:33:15.407Z,4.10
2023-02-24T20:35:42.351Z,4.93
2023-02-24T20:38:09.231Z,4.80
2023-02-24T20:40:36.745Z,4.77
2023-02-24T20:43:04.799Z,5.80
2023-02-24T20:45:31.710Z,6.53
2023-02-24T20:47:58.196Z,6.87
2023-02-24T20:50:24.659Z,6.30
2023-02-24T20:52:51.178Z,5.80
2023-02-24T20:55:17.667Z,6.50
2023-02-24T20:57:44.127Z,7.23
2023-02-24T21:00:11.265Z,7.13
2023-02-24T21:02:41.070Z,8.60
2023-02-24T21:05:08.562Z,6.77
2023-02-24T21:07:36.928Z,5.67
2023-02-24T21:10:04.067Z,5.10
2023-02-24T21:12:30.746Z,4.70
2023-02-24T21:14:57.184Z,4.53
2023-02-24T21:17:23.632Z,4.73
2023-02-24T21:19:50.184Z,4.57
2023-02-24T21:22:17.620Z,4.57
2023-02-24T21:24:44.197Z,4.70
2023-02-24T21:27:10.680Z,4.53
2023-02-24T21:29:37.154Z,4.30
2023-02-24T21:32:03.832Z,4.50
2023-02-24T21:34:30.606Z,5.07
2023-02-24T21:36:57.109Z,4.17
2023-02-24T21:39:23.472Z,5.17
2023-02-24T21:41:49.888Z,4.77
2023-02-24T21:44:16.435Z,4.90
2023-02-24T21:46:43.014Z,5.30
2023-02-24T21:49:14.373Z,4.60
2023-02-24T21:51:42.004Z,5.67
2023-02-24T21:54:08.734Z,5.10
2023-02-24T21:56:35.543Z,4.93
2023-02-24T21:59:03.557Z,5.03
2023-02-24T22:01:34.438Z,5.10
2023-02-24T22:04:02.091Z,5.37
2023-02-24T22:06:31.656Z,4.70
2023-02-24T22:08:59.064Z,5.80
2023-02-24T22:11:25.492Z,5.73
2023-02-24T22:13:52.019Z,5.50
2023-02-24T22:16:19.702Z,5.37
2023-02-24T22:18:46.564Z,5.23
2023-02-24T22:21:17.190Z,5.50
2023-02-24T22:23:44.525Z,4.83
2023-02-24T22:26:11.449Z,5.50
2023-02-24T22:28:40.294Z,5.50
2023-02-24T22:31:07.503Z,5.13
2023-02-24T22:33:35.587Z,5.40
2023-02-24T22:36:03.373Z,4.97
2023-02-24T22:38:30.904Z,5.37
2023-02-24T22:40:58.950Z,5.37
2023-02-24T22:43:25.776Z,5.10
2023-02-24T22:46:04.065Z,6.47
2023-02-24T22:48:32.093Z,5.00
2023-02-24T22:50:59.851Z,5.40
2023-02-24T22:53:26.744Z,6.00
2023-02-24T22:55:53.599Z,5.30
2023-02-24T22:58:21.024Z,5.70
2023-02-24T23:00:47.996Z,5.53
2023-02-24T23:03:19.635Z,4.80
2023-02-24T23:05:59.772Z,5.27
2023-02-24T23:08:26.903Z,4.90
2023-02-24T23:10:53.773Z,4.97
2023-02-24T23:13:20.923Z,5.57
2023-02-24T23:15:50.432Z,5.47
2023-02-24T23:18:17.122Z,4.93
2023-02-24T23:20:44.913Z,5.20
2023-02-24T23:23:11.752Z,5.03
2023-02-24T23:25:38.711Z,4.60
2023-02-24T23:28:05.673Z,5.53
2023-02-24T23:30:32.185Z,5.03
2023-02-24T23:32:58.686Z,4.87
2023-02-24T23:35:25.103Z,4.83
2023-02-24T23:37:51.552Z,4.53
2023-02-24T23:40:18.049Z,5.07
2023-02-24T23:42:44.501Z,5.37
2023-02-24T23:45:11.426Z,4.80
2023-02-24T23:47:38.002Z,4.40
2023-02-24T23:50:04.647Z,4.60
2023-02-24T23:52:31.024Z,5.57
2023-02-24T23:54:57.483Z,6.20
2023-02-24T23:57:23.918Z,5.53
2023-02-24T23:59:50.335Z,5.17
